Time;durP1;ratioP1;P1;durP2;ratioP2;P2;SDS_P1;SDS_P2;PMS_P1;PMS_P2;Temp;Humidity;BMP_temperature;BMP_pressure;BME280_temperature;BME280_humidity;BME280_pressure;Samples;Min_cycle;Max_cycle;Signal;HPM_P1;HPM_P2
2020/12/05 00:00:22;;;;;;;42.05;21.92;;;7.20;83.30;;;;;;4995642;28;20426;-73
2020/12/05 00:02:49;;;;;;;31.13;16.73;;;7.30;83.50;;;;;;4977104;28;20535;-74
2020/12/05 00:05:15;;;;;;;36.22;21.35;;;7.30;83.50;;;;;;4994937;28;20454;-74
2020/12/05 00:07:42;;;;;;;41.15;23.60;;;7.30;83.60;;;;;;4977557;28;20031;-74
2020/12/05 00:10:08;;;;;;;44.95;26.38;;;7.30;83.60;;;;;;4994543;28;20490;-75
2020/12/05 00:12:35;;;;;;;26.98;16.73;;;7.20;83.70;;;;;;4978193;28;20030;-75
2020/12/05 00:15:01;;;;;;;30.52;19.08;;;7.20;83.80;;;;;;4977330;28;20026;-74
2020/12/05 00:17:27;;;;;;;31.40;19.75;;;7.20;83.80;;;;;;4977056;28;20073;-74
2020/12/05 00:19:52;;;;;;;26.40;16.60;;;7.20;83.90;;;;;;4977261;28;20076;-73
2020/12/05 00:22:18;;;;;;;30.90;17.33;;;7.20;83.80;;;;;;4995110;28;20035;-74
2020/12/05 00:24:44;;;;;;;33.65;19.50;;;7.30;83.90;;;;;;4994077;28;20104;-74
2020/12/05 00:27:10;;;;;;;35.67;22.20;;;7.20;84.00;;;;;;4994311;28;20033;-73
2020/12/05 00:29:36;;;;;;;29.67;18.35;;;7.20;84.10;;;;;;4977051;28;20026;-73
2020/12/05 00:32:06;;;;;;;33.28;20.23;;;7.20;84.20;;;;;;4976978;28;20034;-74
2020/12/05 00:34:31;;;;;;;27.60;16.42;;;7.20;84.30;;;;;;4977003;28;20122;-73
2020/12/05 00:36:57;;;;;;;33.38;20.38;;;7.20;84.30;;;;;;4976663;28;20117;-74
2020/12/05 00:39:23;;;;;;;43.50;24.55;;;7.20;84.50;;;;;;4994165;28;20026;-73
2020/12/05 00:41:52;;;;;;;37.80;22.95;;;7.20;84.40;;;;;;4977340;28;20371;-74
2020/12/05 00:44:18;;;;;;;41.67;24.77;;;7.20;84.60;;;;;;4976653;28;20182;-74
2020/12/05 00:46:44;;;;;;;44.88;24.88;;;7.20;84.40;;;;;;4995234;28;20038;-74
2020/12/05 00:49:10;;;;;;;66.70;38.80;;;7.20;84.70;;;;;;4994363;28;20058;-74
2020/12/05 00:51:35;;;;;;;45.50;26.98;;;7.30;84.50;;;;;;4977629;28;20061;-73
2020/12/05 00:54:02;;;;;;;46.83;28.52;;;7.30;84.70;;;;;;4981107;28;20421;-73
2020/12/05 00:56:27;;;;;;;36.53;22.67;;;7.30;84.70;;;;;;4980891;28;20027;-73
2020/12/05 00:58:53;;;;;;;54.75;31.60;;;7.30;84.50;;;;;;4998357;28;20034;-73
2020/12/05 01:01:19;;;;;;;35.92;21.95;;;7.30;84.60;;;;;;4980736;28;20121;-73
2020/12/05 01:03:45;;;;;;;44.10;26.08;;;7.30;84.60;;;;;;4980780;28;20165;-73
2020/12/05 01:06:12;;;;;;;71.32;41.25;;;7.30;84.60;;;;;;4980374;28;20065;-73
2020/12/05 01:08:40;;;;;;;32.30;19.45;;;7.30;84.60;;;;;;4980776;28;20049;-73
2020/12/05 01:11:17;;;;;;;62.85;33.00;;;7.30;84.60;;;;;;4980625;28;20037;-73
2020/12/05 01:13:43;;;;;;;57.25;31.85;;;7.30;84.70;;;;;;4997630;28;20381;-73
2020/12/05 01:16:19;;;;;;;52.28;29.52;;;7.30;84.70;;;;;;4980556;28;20030;-73
2020/12/05 01:18:46;;;;;;;65.97;36.17;;;7.30;84.60;;;;;;4997768;28;20026;-73
2020/12/05 01:21:13;;;;;;;51.85;28.15;;;7.30;84.70;;;;;;4980352;28;20061;-73
2020/12/05 01:23:40;;;;;;;48.03;28.17;;;7.30;84.50;;;;;;4980100;28;20485;-73
2020/12/05 01:26:06;;;;;;;94.88;48.70;;;7.30;84.60;;;;;;4998022;28;20173;-73
2020/12/05 01:28:33;;;;;;;97.28;45.30;;;7.30;84.60;;;;;;4980405;28;20030;-73
2020/12/05 01:31:00;;;;;;;97.55;48.20;;;7.30;84.70;;;;;;4980262;28;20030;-72
2020/12/05 01:33:26;;;;;;;104.60;51.45;;;7.30;84.70;;;;;;4997416;28;20037;-73
2020/12/05 01:35:52;;;;;;;112.65;52.40;;;7.30;84.70;;;;;;4997969;28;20019;-72
2020/12/05 01:38:18;;;;;;;47.35;24.98;;;7.30;84.80;;;;;;4979854;28;20142;-73
2020/12/05 01:40:57;;;;;;;116.70;54.78;;;7.30;84.90;;;;;;4980139;28;20030;-73
2020/12/05 01:43:23;;;;;;;154.48;68.57;;;7.30;85.00;;;;;;4980051;28;20057;-73
2020/12/05 01:45:50;;;;;;;39.00;21.67;;;7.30;85.00;;;;;;4979988;28;20026;-73
2020/12/05 01:48:20;;;;;;;36.80;19.45;;;7.20;85.10;;;;;;4979632;28;20206;-73
2020/12/05 01:50:47;;;;;;;109.85;48.20;;;7.20;85.20;;;;;;4979951;28;20073;-73
2020/12/05 01:53:16;;;;;;;94.95;44.20;;;7.20;85.20;;;;;;4979934;28;20470;-74
2020/12/05 01:55:49;;;;;;;65.80;31.95;;;7.20;85.30;;;;;;4979611;28;20073;-73
2020/12/05 01:58:16;;;;;;;68.68;33.13;;;7.20;85.50;;;;;;4979923;28;20030;-75
2020/12/05 02:00:44;;;;;;;96.60;44.80;;;7.20;85.60;;;;;;4996898;28;20073;-73
2020/12/05 02:03:12;;;;;;;84.20;39.00;;;7.20;85.60;;;;;;4996586;28;20033;-74
2020/12/05 02:06:02;;;;;;;78.55;39.08;;;7.20;85.70;;;;;;4980160;28;20036;-74
2020/12/05 02:08:38;;;;;;;82.00;38.13;;;7.20;85.60;;;;;;4979246;28;20062;-73
2020/12/05 02:11:09;;;;;;;77.18;36.63;;;7.20;85.60;;;;;;4979597;28;20027;-73
2020/12/05 02:13:43;;;;;;;53.92;29.13;;;7.20;85.60;;;;;;4996993;28;20022;-73
2020/12/05 02:16:09;;;;;;;41.25;24.17;;;7.20;85.80;;;;;;4979358;28;20417;-74
2020/12/05 02:18:38;;;;;;;83.47;41.58;;;7.20;85.80;;;;;;4979281;28;20027;-73
2020/12/05 02:21:04;;;;;;;26.35;16.92;;;7.20;85.90;;;;;;4979393;28;20034;-73
2020/12/05 02:23:30;;;;;;;100.65;50.67;;;7.20;85.90;;;;;;4978645;28;20137;-74
2020/12/05 02:26:04;;;;;;;31.17;18.38;;;7.20;86.10;;;;;;4997054;28;20351;-74
2020/12/05 02:28:31;;;;;;;111.38;52.00;;;7.20;86.10;;;;;;4996497;28;20378;-73
2020/12/05 02:30:57;;;;;;;68.05;34.70;;;7.20;86.00;;;;;;4996603;28;20086;-73
2020/12/05 02:33:23;;;;;;;80.82;39.97;;;7.20;86.00;;;;;;4979191;28;20022;-73
2020/12/05 02:35:49;;;;;;;31.42;19.25;;;7.20;86.10;;;;;;4996019;28;20041;-73
2020/12/05 02:38:28;;;;;;;89.05;47.80;;;7.20;86.10;;;;;;4978771;28;20032;-73
2020/12/05 02:40:54;;;;;;;36.72;20.75;;;7.10;86.10;;;;;;4979543;28;20366;-73
2020/12/05 02:43:19;;;;;;;214.70;100.45;;;7.20;86.30;;;;;;4978615;28;20030;-73
2020/12/05 02:45:45;;;;;;;111.72;57.88;;;7.20;86.30;;;;;;4978952;28;20049;-73
2020/12/05 02:48:11;;;;;;;34.90;20.27;;;7.20;86.40;;;;;;4978970;28;20477;-73
2020/12/05 02:50:38;;;;;;;33.78;19.40;;;7.20;86.40;;;;;;4978603;28;20080;-73
2020/12/05 02:53:04;;;;;;;126.25;63.25;;;7.20;86.50;;;;;;4996316;28;20096;-73
2020/12/05 02:55:30;;;;;;;44.58;24.10;;;7.20;86.40;;;;;;4978709;28;20036;-73
2020/12/05 02:57:56;;;;;;;32.97;17.45;;;7.20;86.40;;;;;;4995711;28;20474;-73
2020/12/05 03:00:22;;;;;;;67.70;34.05;;;7.20;86.60;;;;;;4978717;28;20031;-73
2020/12/05 03:02:48;;;;;;;71.28;37.10;;;7.20;86.60;;;;;;4978573;28;20045;-73
2020/12/05 03:05:14;;;;;;;93.35;48.47;;;7.20;86.80;;;;;;4978248;28;20018;-73
2020/12/05 03:07:39;;;;;;;24.17;15.20;;;7.20;86.70;;;;;;4978540;28;20026;-73
2020/12/05 03:10:05;;;;;;;84.65;42.88;;;7.20;86.90;;;;;;4995695;28;20397;-73
2020/12/05 03:12:31;;;;;;;47.42;25.73;;;7.20;86.70;;;;;;4995527;28;20034;-73
2020/12/05 03:14:57;;;;;;;44.85;25.70;;;7.20;86.80;;;;;;4977472;28;20080;-74
2020/12/05 03:17:23;;;;;;;25.88;16.77;;;7.20;86.80;;;;;;4996268;28;20026;-73
2020/12/05 03:19:48;;;;;;;77.43;40.85;;;7.20;86.70;;;;;;4995478;28;20054;-73
2020/12/05 03:22:14;;;;;;;89.75;49.22;;;7.20;86.90;;;;;;4978189;28;20077;-73
2020/12/05 03:24:40;;;;;;;130.55;72.57;;;7.20;86.60;;;;;;4977532;28;20051;-74
2020/12/05 03:27:06;;;;;;;56.63;30.95;;;7.20;86.80;;;;;;4978119;28;20026;-73
2020/12/05 03:29:32;;;;;;;49.92;29.70;;;7.20;86.90;;;;;;4995623;28;20022;-73
2020/12/05 03:32:10;;;;;;;45.45;27.52;;;7.20;86.70;;;;;;4977857;28;20066;-73
2020/12/05 03:34:36;;;;;;;90.32;50.50;;;7.20;86.90;;;;;;4978840;28;20026;-73
2020/12/05 03:37:02;;;;;;;43.60;26.20;;;7.20;86.90;;;;;;4995746;28;20462;-73
2020/12/05 03:39:27;;;;;;;33.70;20.38;;;7.20;87.00;;;;;;4977984;28;20030;-73
2020/12/05 03:41:53;;;;;;;41.50;26.33;;;7.20;86.90;;;;;;4995606;28;20037;-73
2020/12/05 03:44:19;;;;;;;43.78;26.13;;;7.20;87.10;;;;;;4995282;28;20030;-73
2020/12/05 03:46:45;;;;;;;25.00;16.92;;;7.20;87.10;;;;;;4995008;28;20025;-73
2020/12/05 03:49:10;;;;;;;24.88;16.00;;;7.20;87.10;;;;;;4977731;28;20049;-73
2020/12/05 03:51:37;;;;;;;33.97;20.88;;;7.20;87.10;;;;;;4977776;28;20030;-73
2020/12/05 03:54:02;;;;;;;26.10;16.73;;;7.20;87.20;;;;;;4977377;28;20064;-73
2020/12/05 03:56:28;;;;;;;70.72;37.65;;;7.20;87.30;;;;;;4995370;28;20035;-73
2020/12/05 03:58:54;;;;;;;77.40;38.72;;;7.10;87.20;;;;;;4977590;28;20026;-73
2020/12/05 04:01:22;;;;;;;92.72;45.92;;;7.10;87.10;;;;;;4994931;28;20035;-73
2020/12/05 04:03:48;;;;;;;92.95;47.90;;;7.20;87.40;;;;;;4994899;28;20461;-74
2020/12/05 04:06:14;;;;;;;33.83;19.95;;;7.20;87.20;;;;;;4977460;28;20113;-74
2020/12/05 04:08:41;;;;;;;65.55;37.80;;;7.20;87.20;;;;;;4977128;28;20080;-74
2020/12/05 04:11:07;;;;;;;39.17;23.77;;;7.10;87.00;;;;;;4994881;28;20065;-73
2020/12/05 04:13:34;;;;;;;45.20;23.63;;;7.10;87.10;;;;;;4977473;28;20398;-74
2020/12/05 04:15:59;;;;;;;38.47;23.90;;;7.20;87.10;;;;;;4978175;28;20049;-74
2020/12/05 04:18:25;;;;;;;43.75;27.15;;;7.20;87.20;;;;;;4976960;28;20553;-74
2020/12/05 04:20:51;;;;;;;49.45;29.98;;;7.10;87.10;;;;;;4976853;28;20030;-74
2020/12/05 04:23:17;;;;;;;43.00;27.00;;;7.10;87.20;;;;;;4994792;28;20055;-74
2020/12/05 04:25:42;;;;;;;49.35;29.15;;;7.10;87.20;;;;;;4994951;28;20037;-74
2020/12/05 04:28:08;;;;;;;62.13;36.67;;;7.10;87.20;;;;;;4976661;28;20079;-74
2020/12/05 04:30:34;;;;;;;45.78;27.27;;;7.10;87.30;;;;;;4994783;28;20030;-74
2020/12/05 04:33:00;;;;;;;49.17;29.02;;;7.10;87.20;;;;;;4994534;28;20030;-74
2020/12/05 04:35:26;;;;;;;32.47;17.52;;;7.10;87.20;;;;;;4976758;28;20030;-74
2020/12/05 04:37:52;;;;;;;52.83;31.23;;;7.10;87.30;;;;;;4977223;28;20022;-74
2020/12/05 04:40:18;;;;;;;67.35;38.40;;;7.10;87.30;;;;;;4994267;28;20092;-74
2020/12/05 04:42:45;;;;;;;28.38;17.30;;;7.10;87.40;;;;;;4994035;28;20037;-74
2020/12/05 04:45:12;;;;;;;33.85;19.40;;;7.10;87.50;;;;;;4994678;28;20532;-74
2020/12/05 04:47:40;;;;;;;55.40;31.75;;;7.00;87.40;;;;;;4994438;28;20154;-74
2020/12/05 04:50:07;;;;;;;59.78;35.13;;;7.00;87.40;;;;;;4976492;28;20359;-73
2020/12/05 04:52:41;;;;;;;68.00;39.65;;;7.00;87.60;;;;;;4976835;28;20481;-73
2020/12/05 04:55:08;;;;;;;53.03;31.17;;;7.00;87.60;;;;;;4994621;28;20027;-73
2020/12/05 04:57:44;;;;;;;45.90;28.60;;;7.00;87.70;;;;;;4976496;28;20034;-73
2020/12/05 05:00:10;;;;;;;46.15;27.13;;;6.90;87.70;;;;;;4976877;28;20026;-73
2020/12/05 05:02:42;;;;;;;36.65;20.77;;;6.90;87.80;;;;;;4976178;28;20219;-73
2020/12/05 05:05:10;;;;;;;48.53;29.95;;;6.90;87.90;;;;;;4976890;28;20096;-73
2020/12/05 05:07:49;;;;;;;41.38;24.23;;;6.90;87.60;;;;;;4976703;28;20030;-73
2020/12/05 05:10:18;;;;;;;39.38;22.80;;;6.90;87.60;;;;;;4976467;28;20030;-73
2020/12/05 05:12:44;;;;;;;42.55;22.63;;;6.90;87.80;;;;;;4976946;28;20378;-73
2020/12/05 05:15:29;;;;;;;45.50;28.23;;;6.90;87.90;;;;;;4976677;28;20026;-74
2020/12/05 05:18:01;;;;;;;32.72;20.10;;;6.90;88.10;;;;;;4976810;28;20027;-74
2020/12/05 05:20:29;;;;;;;30.50;17.83;;;6.90;88.50;;;;;;4976727;28;20359;-74
2020/12/05 05:23:18;;;;;;;34.55;20.67;;;6.90;88.20;;;;;;4993856;28;20121;-75
2020/12/05 05:26:00;;;;;;;30.77;18.92;;;6.90;88.30;;;;;;4993804;28;20466;-73
2020/12/05 05:28:36;;;;;;;29.60;19.33;;;6.90;88.40;;;;;;4994197;28;20077;-73
2020/12/05 05:31:25;;;;;;;38.60;20.77;;;6.80;88.70;;;;;;4993699;28;20046;-73
2020/12/05 05:33:53;;;;;;;31.10;17.15;;;6.80;89.00;;;;;;4976453;28;20022;-74
2020/12/05 05:36:19;;;;;;;31.92;18.58;;;6.80;89.40;;;;;;4993893;28;20034;-73
2020/12/05 05:39:02;;;;;;;36.08;20.13;;;6.80;89.00;;;;;;4994858;28;20033;-74
2020/12/05 05:41:29;;;;;;;38.67;22.38;;;6.80;89.10;;;;;;4980681;28;20035;-74
2020/12/05 05:43:57;;;;;;;37.10;21.92;;;6.70;89.10;;;;;;4997344;28;20030;-73
2020/12/05 05:46:40;;;;;;;37.03;21.90;;;6.70;89.20;;;;;;4979830;28;20051;-73
2020/12/05 05:49:06;;;;;;;40.92;24.80;;;6.70;89.30;;;;;;4997775;28;20022;-73
2020/12/05 05:51:40;;;;;;;31.83;21.00;;;6.70;89.30;;;;;;4979634;28;20034;-73
2020/12/05 05:54:30;;;;;;;35.15;22.60;;;6.70;89.30;;;;;;4997992;28;20030;-73
2020/12/05 05:57:15;;;;;;;36.05;22.08;;;6.80;89.20;;;;;;4980655;28;20451;-73
2020/12/05 05:59:42;;;;;;;;;;;6.80;88.90;;;;;;4980265;28;20027;-73
2020/12/05 06:02:10;;;;;;;57.42;31.05;;;6.80;89.00;;;;;;4979641;28;19910;-73
2020/12/05 06:04:42;;;;;;;149.82;68.97;;;6.80;88.90;;;;;;4997217;28;20030;-73
2020/12/05 06:07:12;;;;;;;129.80;75.30;;;6.80;88.90;;;;;;4979404;28;20034;-74
2020/12/05 06:09:48;;;;;;;106.15;81.18;;;6.80;89.50;;;;;;4997342;28;20038;-73
2020/12/05 06:12:38;;;;;;;58.20;41.45;;;6.80;88.90;;;;;;4996880;28;20031;-74
2020/12/05 06:15:04;;;;;;;45.45;31.75;;;6.90;88.80;;;;;;4969795;28;20030;-74
2020/12/05 06:17:30;;;;;;;32.75;20.10;;;6.90;88.80;;;;;;4979366;28;20390;-73
2020/12/05 06:19:56;;;;;;;52.67;29.13;;;6.80;88.80;;;;;;4979052;28;20034;-73
2020/12/05 06:22:46;;;;;;;82.53;48.75;;;6.80;88.80;;;;;;4996809;28;20034;-74
2020/12/05 06:25:12;;;;;;;70.45;41.78;;;6.90;89.00;;;;;;4997468;28;20482;-73
2020/12/05 06:27:49;;;;;;;94.30;57.85;;;6.90;88.80;;;;;;4978654;28;20027;-73
2020/12/05 06:30:15;;;;;;;98.20;59.65;;;6.90;88.70;;;;;;4980096;28;20030;-72
2020/12/05 06:32:46;;;;;;;60.47;35.38;;;6.90;88.70;;;;;;4979251;28;20193;-72
2020/12/05 06:35:18;;;;;;;75.85;45.60;;;6.90;88.90;;;;;;4996379;28;20108;-71
2020/12/05 06:37:43;;;;;;;43.03;26.27;;;6.90;88.90;;;;;;4978871;28;20037;-71
2020/12/05 06:40:09;;;;;;;47.97;30.65;;;7.00;88.90;;;;;;4996852;28;20030;-72
2020/12/05 06:42:47;;;;;;;69.30;43.42;;;7.00;88.90;;;;;;4996201;28;20035;-72
2020/12/05 06:45:28;;;;;;;62.40;39.75;;;7.00;88.90;;;;;;4996512;28;20050;-73
2020/12/05 06:48:09;;;;;;;55.03;35.30;;;7.10;88.80;;;;;;4996068;28;20136;-73
2020/12/05 06:50:37;;;;;;;79.35;48.72;;;7.10;88.70;;;;;;4996160;28;20088;-73
2020/12/05 06:53:23;;;;;;;77.68;46.70;;;7.20;88.60;;;;;;4995979;28;20032;-73
2020/12/05 06:55:51;;;;;;;60.63;37.60;;;7.20;88.50;;;;;;4995765;28;20026;-73
2020/12/05 06:58:30;;;;;;;51.58;30.80;;;7.30;88.30;;;;;;4978980;28;20030;-73
2020/12/05 07:00:56;;;;;;;56.03;35.63;;;7.40;88.20;;;;;;4979241;28;20027;-73
2020/12/05 07:03:30;;;;;;;54.95;31.83;;;7.40;87.90;;;;;;4995574;28;20027;-73
2020/12/05 07:05:57;;;;;;;48.57;28.00;;;7.50;87.80;;;;;;4979416;28;20386;-73
2020/12/05 07:08:33;;;;;;;50.60;33.00;;;7.50;87.50;;;;;;4995735;28;20390;-73
2020/12/05 07:11:07;;;;;;;43.08;28.02;;;7.60;87.40;;;;;;4978448;28;20029;-73
2020/12/05 07:13:42;;;;;;;52.10;35.40;;;7.60;87.30;;;;;;4995933;28;20446;-73
2020/12/05 07:16:29;;;;;;;45.30;27.02;;;7.70;87.30;;;;;;4978452;28;20030;-73
2020/12/05 07:19:00;;;;;;;50.72;30.00;;;7.70;87.10;;;;;;4995317;28;20046;-73
2020/12/05 07:21:28;;;;;;;41.33;25.75;;;7.80;87.00;;;;;;4993850;28;20162;-73
2020/12/05 07:23:54;;;;;;;35.20;22.88;;;7.90;86.60;;;;;;4993517;28;20057;-72
2020/12/05 07:26:20;;;;;;;36.53;21.05;;;7.90;86.40;;;;;;4993952;28;20440;-73
2020/12/05 07:28:48;;;;;;;36.13;22.80;;;8.00;86.10;;;;;;4977247;28;20125;-73
2020/12/05 07:31:15;;;;;;;38.30;25.20;;;8.10;86.20;;;;;;4976801;28;20036;-74
2020/12/05 07:33:42;;;;;;;45.92;29.25;;;8.10;85.90;;;;;;4984925;28;20085;-73
2020/12/05 07:36:09;;;;;;;44.95;29.13;;;8.20;85.80;;;;;;4959318;28;20115;-73
2020/12/05 07:38:37;;;;;;;40.78;24.75;;;8.20;85.40;;;;;;4958424;28;20526;-71
2020/12/05 07:41:20;;;;;;;48.22;26.10;;;8.30;85.30;;;;;;4958612;28;20027;-72
2020/12/05 07:43:46;;;;;;;44.58;24.55;;;8.40;85.20;;;;;;4975590;28;20116;-73
2020/12/05 07:46:14;;;;;;;47.90;30.20;;;8.40;85.10;;;;;;4958659;28;20494;-73
2020/12/05 07:48:40;;;;;;;34.47;21.83;;;8.50;84.70;;;;;;4958998;28;20023;-74
2020/12/05 07:51:17;;;;;;;35.65;23.63;;;8.60;84.40;;;;;;4958938;28;20050;-73
2020/12/05 07:53:44;;;;;;;30.23;20.17;;;8.60;84.20;;;;;;4995352;28;20110;-72
2020/12/05 07:56:21;;;;;;;29.58;20.05;;;8.70;84.00;;;;;;4977099;28;20085;-73
2020/12/05 07:58:51;;;;;;;34.92;24.05;;;8.80;83.30;;;;;;4994122;28;20023;-72
2020/12/05 08:01:54;;;;;;;38.83;26.35;;;8.90;83.10;;;;;;4976646;28;20447;-72
2020/12/05 08:04:42;;;;;;;35.70;22.67;;;8.90;83.40;;;;;;4994889;28;20129;-72
2020/12/05 08:07:29;;;;;;;27.42;17.05;;;9.10;82.60;;;;;;4977167;28;20022;-71
2020/12/05 08:09:55;;;;;;;39.72;25.92;;;9.20;81.90;;;;;;4994430;28;20386;-72
2020/12/05 08:13:14;;;;;;;34.92;24.67;;;9.20;82.60;;;;;;4976936;28;20026;-72
2020/12/05 08:15:41;;;;;;;38.45;22.95;;;9.40;81.90;;;;;;4943675;28;20062;-72
2020/12/05 08:18:07;;;;;;;57.40;34.83;;;9.50;81.20;;;;;;4989384;28;20032;-72
2020/12/05 08:20:40;;;;;;;32.22;21.60;;;9.60;80.70;;;;;;4976426;28;20030;-74
2020/12/05 08:23:06;;;;;;;34.22;22.42;;;9.70;79.70;;;;;;4994371;28;20042;-72
2020/12/05 08:25:33;;;;;;;41.50;24.27;;;9.80;79.80;;;;;;4994708;28;20034;-72
2020/12/05 08:27:59;;;;;;;30.95;19.95;;;9.80;80.10;;;;;;4994239;28;20077;-72
2020/12/05 08:30:25;;;;;;;30.55;20.00;;;10.00;79.10;;;;;;4994629;28;20030;-72
2020/12/05 08:33:01;;;;;;;39.20;24.00;;;10.10;78.80;;;;;;4976900;28;20363;-72
2020/12/05 08:35:31;;;;;;;39.08;20.92;;;10.20;78.80;;;;;;4977064;28;20056;-72
2020/12/05 08:38:01;;;;;;;31.60;18.13;;;10.30;77.80;;;;;;4977052;28;20022;-71
2020/12/05 08:40:27;;;;;;;32.45;19.77;;;10.40;78.30;;;;;;4994176;28;20458;-71
2020/12/05 08:42:53;;;;;;;30.45;18.33;;;10.50;77.20;;;;;;4977235;28;20092;-72
2020/12/05 08:45:21;;;;;;;30.73;19.90;;;10.60;77.20;;;;;;4976982;28;20038;-72
2020/12/05 08:47:49;;;;;;;29.77;17.70;;;10.80;76.40;;;;;;4994135;28;20034;-72
2020/12/05 08:50:35;;;;;;;29.40;21.17;;;11.00;76.20;;;;;;4976660;28;20062;-72
2020/12/05 08:53:03;;;;;;;24.42;15.88;;;11.10;75.50;;;;;;4994287;28;20470;-72
2020/12/05 08:55:30;;;;;;;28.80;17.58;;;11.30;74.80;;;;;;4994050;28;20026;-72
2020/12/05 08:58:00;;;;;;;47.95;25.75;;;11.40;75.10;;;;;;4976705;28;20030;-71
2020/12/05 09:00:28;;;;;;;37.00;21.30;;;11.50;74.30;;;;;;4976587;28;20493;-71
2020/12/05 09:02:53;;;;;;;35.35;21.02;;;11.60;74.70;;;;;;4976633;28;20063;-71
2020/12/05 09:05:20;;;;;;;31.10;18.60;;;12.00;72.60;;;;;;4976635;28;20042;-71
2020/12/05 09:07:54;;;;;;;26.50;16.77;;;12.30;71.70;;;;;;4993913;28;20073;-72
2020/12/05 09:10:20;;;;;;;25.85;16.70;;;12.70;70.40;;;;;;4977396;28;20088;-71
2020/12/05 09:12:46;;;;;;;27.33;17.13;;;13.10;69.90;;;;;;4994356;28;20474;-71
2020/12/05 09:15:12;;;;;;;32.40;18.35;;;13.40;68.80;;;;;;4997181;28;20104;-70
2020/12/05 09:17:38;;;;;;;24.15;15.23;;;13.60;66.60;;;;;;4980384;28;20050;-71
2020/12/05 09:20:11;;;;;;;24.45;14.93;;;13.90;66.00;;;;;;4980607;28;20058;-70
2020/12/05 09:22:38;;;;;;;23.70;14.82;;;14.10;66.00;;;;;;4980144;28;20474;-71
2020/12/05 09:25:05;;;;;;;28.75;16.92;;;14.40;63.70;;;;;;4980304;28;20042;-71
2020/12/05 09:27:42;;;;;;;31.27;18.13;;;14.40;65.20;;;;;;4980475;28;20030;-71
2020/12/05 09:30:13;;;;;;;24.05;15.93;;;14.60;63.10;;;;;;4980089;28;20061;-71
2020/12/05 09:32:43;;;;;;;23.40;13.80;;;14.60;61.80;;;;;;4980335;28;20121;-72
2020/12/05 09:35:11;;;;;;;26.42;13.95;;;14.60;61.60;;;;;;4998010;28;20033;-71
2020/12/05 09:37:37;;;;;;;23.33;15.75;;;14.90;61.90;;;;;;4980013;28;20085;-72
2020/12/05 09:40:05;;;;;;;23.02;14.23;;;14.80;60.90;;;;;;4980238;28;20027;-70
2020/12/05 09:42:31;;;;;;;20.48;12.43;;;14.80;60.90;;;;;;4979774;28;20038;-72
2020/12/05 09:44:57;;;;;;;22.85;13.43;;;14.90;60.50;;;;;;4997602;28;20050;-73
2020/12/05 09:47:23;;;;;;;18.05;10.98;;;14.90;60.70;;;;;;4997499;28;20379;-72
2020/12/05 09:49:49;;;;;;;20.83;11.77;;;14.90;59.90;;;;;;4997222;28;20347;-72
2020/12/05 09:52:15;;;;;;;20.80;12.95;;;14.80;60.40;;;;;;4997526;28;20092;-71
2020/12/05 09:54:40;;;;;;;25.98;15.15;;;14.80;61.70;;;;;;4980047;28;20467;-72
2020/12/05 09:57:07;;;;;;;21.25;12.77;;;14.80;60.80;;;;;;4979615;28;20398;-72
2020/12/05 09:59:33;;;;;;;21.95;14.18;;;14.70;61.00;;;;;;4979879;28;20027;-72
2020/12/05 10:02:06;;;;;;;31.55;19.13;;;14.60;60.90;;;;;;4996832;28;20038;-71
2020/12/05 10:04:32;;;;;;;20.70;14.13;;;14.90;61.60;;;;;;4979518;28;20027;-72
2020/12/05 10:06:58;;;;;;;18.17;11.35;;;14.90;60.10;;;;;;4997507;28;20033;-72
2020/12/05 10:09:23;;;;;;;21.15;12.57;;;15.10;60.00;;;;;;4979741;28;20388;-71
2020/12/05 10:11:49;;;;;;;20.38;11.90;;;15.10;60.40;;;;;;4979750;28;20030;-72
2020/12/05 10:14:15;;;;;;;20.73;13.50;;;15.10;60.10;;;;;;4979722;28;20030;-72
2020/12/05 10:16:41;;;;;;;17.88;11.50;;;15.30;61.20;;;;;;4997001;28;20030;-72
2020/12/05 10:19:07;;;;;;;21.08;12.88;;;15.50;61.50;;;;;;4979216;28;20120;-72
2020/12/05 10:21:32;;;;;;;22.70;12.93;;;15.70;59.40;;;;;;4979350;28;20034;-72
2020/12/05 10:23:58;;;;;;;24.13;13.35;;;15.80;58.60;;;;;;4979149;28;20097;-73
2020/12/05 10:26:24;;;;;;;18.13;12.32;;;15.80;58.40;;;;;;4979358;28;20033;-73
2020/12/05 10:28:49;;;;;;;19.42;12.10;;;15.90;58.20;;;;;;4996807;28;20023;-72
2020/12/05 10:31:15;;;;;;;18.83;11.65;;;16.00;57.40;;;;;;4997388;28;20030;-73
2020/12/05 10:33:41;;;;;;;16.30;11.07;;;16.10;56.80;;;;;;4978951;28;20030;-72
2020/12/05 10:36:07;;;;;;;72.00;34.78;;;15.90;57.60;;;;;;4996157;28;20023;-72
2020/12/05 10:38:32;;;;;;;106.95;48.97;;;15.70;57.90;;;;;;4976551;28;20030;-72
2020/12/05 10:40:58;;;;;;;94.65;40.70;;;15.70;58.40;;;;;;4996581;28;20030;-72
2020/12/05 10:43:24;;;;;;;49.50;27.70;;;15.60;58.30;;;;;;4996833;28;20023;-73
2020/12/05 10:45:50;;;;;;;99.30;48.92;;;15.40;58.50;;;;;;4978797;28;20028;-73
2020/12/05 10:48:15;;;;;;;50.92;26.05;;;15.40;59.80;;;;;;4978902;28;20030;-72
2020/12/05 10:50:41;;;;;;;104.20;47.75;;;15.30;59.20;;;;;;4978990;28;20030;-72
2020/12/05 10:53:08;;;;;;;171.23;76.63;;;15.10;60.30;;;;;;4978303;28;20116;-72
2020/12/05 10:55:34;;;;;;;135.48;69.95;;;14.90;60.60;;;;;;4978870;28;20060;-73
2020/12/05 10:57:59;;;;;;;200.02;84.05;;;14.80;61.10;;;;;;4996267;28;20053;-72
2020/12/05 11:00:25;;;;;;;135.88;61.95;;;14.60;61.70;;;;;;4978214;28;20030;-72
2020/12/05 11:02:51;;;;;;;121.40;56.85;;;14.50;62.40;;;;;;4996148;28;20030;-72
2020/12/05 11:05:17;;;;;;;61.70;31.55;;;14.50;62.90;;;;;;4978726;28;20422;-72
2020/12/05 11:07:43;;;;;;;61.08;37.03;;;14.40;62.60;;;;;;4996346;28;20026;-72
2020/12/05 11:10:09;;;;;;;46.20;28.73;;;14.40;63.30;;;;;;4996069;28;20454;-72
2020/12/05 11:12:34;;;;;;;39.25;23.20;;;14.30;64.00;;;;;;4978310;28;20027;-72
2020/12/05 11:15:00;;;;;;;41.45;24.90;;;14.20;64.00;;;;;;4978193;28;20026;-72
2020/12/05 11:17:26;;;;;;;83.65;35.15;;;14.20;64.40;;;;;;4995672;28;20069;-72
2020/12/05 11:19:52;;;;;;;173.63;71.78;;;14.20;64.80;;;;;;4995594;28;20037;-71
2020/12/05 11:22:18;;;;;;;46.33;26.00;;;14.20;65.70;;;;;;4978038;28;20038;-71
2020/12/05 11:24:43;;;;;;;47.28;27.98;;;14.20;64.90;;;;;;4977914;28;20133;-72
2020/12/05 11:27:09;;;;;;;47.05;26.02;;;14.20;64.70;;;;;;4995301;28;20105;-72
2020/12/05 11:29:35;;;;;;;52.35;31.00;;;14.20;64.90;;;;;;4977723;28;20026;-72
2020/12/05 11:32:01;;;;;;;56.83;34.13;;;14.20;65.60;;;;;;4978213;28;20030;-71
2020/12/05 11:34:27;;;;;;;43.83;25.85;;;14.20;66.10;;;;;;4995066;28;20505;-72
2020/12/05 11:36:53;;;;;;;57.15;32.85;;;14.10;66.00;;;;;;4994486;28;20026;-73
2020/12/05 11:39:19;;;;;;;73.95;38.25;;;14.10;66.50;;;;;;4978005;28;20462;-72
2020/12/05 11:41:47;;;;;;;80.25;40.25;;;14.10;66.70;;;;;;4977840;28;20053;-72
2020/12/05 11:44:13;;;;;;;102.15;50.90;;;14.10;66.40;;;;;;4977870;28;20026;-72
2020/12/05 11:46:38;;;;;;;139.18;68.57;;;14.20;66.20;;;;;;4995101;28;20033;-72
2020/12/05 11:49:04;;;;;;;188.80;89.45;;;14.20;67.00;;;;;;4994746;28;20146;-72
2020/12/05 11:51:30;;;;;;;223.75;103.28;;;14.20;67.10;;;;;;4995572;28;20027;-72
2020/12/05 11:53:55;;;;;;;180.13;87.72;;;14.20;66.80;;;;;;4977787;28;20026;-72
2020/12/05 11:56:21;;;;;;;189.18;107.78;;;14.20;66.90;;;;;;4978083;28;20378;-72
2020/12/05 11:58:47;;;;;;;194.68;93.47;;;14.30;66.80;;;;;;4977744;28;20113;-72
2020/12/05 12:01:13;;;;;;;164.52;80.32;;;14.30;66.50;;;;;;4977756;28;20054;-72
2020/12/05 12:03:40;;;;;;;129.23;65.10;;;14.30;66.10;;;;;;4977340;28;20026;-72
2020/12/05 12:06:12;;;;;;;121.43;62.90;;;14.30;65.90;;;;;;4977610;28;20026;-72
2020/12/05 12:08:38;;;;;;;101.70;55.70;;;14.30;66.10;;;;;;4994390;28;20477;-72
2020/12/05 12:11:04;;;;;;;81.70;42.55;;;14.30;66.80;;;;;;4994956;28;20073;-72
2020/12/05 12:13:29;;;;;;;90.80;44.88;;;14.40;65.40;;;;;;4977481;28;20022;-71
2020/12/05 12:15:55;;;;;;;81.95;39.90;;;14.40;65.00;;;;;;4994788;28;20061;-72
2020/12/05 12:18:21;;;;;;;67.97;34.33;;;14.40;65.20;;;;;;4994519;28;20053;-72
2020/12/05 12:20:47;;;;;;;68.57;35.35;;;14.40;64.90;;;;;;4977514;28;20459;-72
2020/12/05 12:23:12;;;;;;;46.58;24.08;;;14.40;64.40;;;;;;4977407;28;20031;-75
2020/12/05 12:25:38;;;;;;;47.22;24.48;;;14.40;63.60;;;;;;4960551;28;20379;-73
2020/12/05 12:28:04;;;;;;;43.97;22.15;;;14.40;64.50;;;;;;4957209;28;20029;-72
2020/12/05 12:30:29;;;;;;;46.35;22.65;;;14.40;63.00;;;;;;4956743;28;20027;-72
2020/12/05 12:32:55;;;;;;;67.20;28.27;;;14.40;62.90;;;;;;4975349;28;20101;-73
2020/12/05 12:35:21;;;;;;;43.40;20.95;;;14.40;63.20;;;;;;4957925;28;20031;-69
2020/12/05 12:37:47;;;;;;;47.15;21.92;;;14.50;62.90;;;;;;4974618;28;20041;-72
2020/12/05 12:40:12;;;;;;;47.25;22.95;;;14.50;62.90;;;;;;4957763;28;20027;-73